Airfield :
LOGIN :

Register | Disclaimer

   EN    FR    IT 

 










Legend :    VFR   Marginal VFR   IFR   Intensive IFR   Very Intensive IFR
Visi :
Ceiling :
>= 8 km
>= 3000ft
5 to 8 km
1000 to 3000 ft
1500m to 5 km
500 to 1000 ft
800 to 1500m
200 to 500 ft
< 800m
< 200 ft
Symbols :   Thunderstorms  Fog  Heavy snow  Heavy precipitations  Wind > 20 kt
SIGMETs :     Misc.  Thunderstorms  Icing  Turbulence  Mountain Waves  Volcanic Ashes







- Airport Elevation : 1906 ft
- IATA code : INN


LOWI - Innsbruck

CURRENT METAR :
  • 100850Z 25013KT 9999 SCT030 BKN055 06/M03 Q1017 NOSIG

EXPIRED METARs :
  • 100820Z 26015KT 210V280 9999 SCT045 BKN070 05/M03 Q1017 NOSIG
  • 100750Z 28023G33KT 9999 SCT045 BKN065 05/M03 Q1017 NOSIG
  • 100720Z 27016G29KT 9999 SCT045 BKN065 05/M02 Q1017 NOSIG
  • 100650Z 26012KT 220V310 9999 FEW015 SCT045 BKN060 05/M01 Q1017 NOSIG
  • 100620Z 26013G23KT 9999 FEW015 SCT045 BKN060 05/M00 Q1017 NOSIG

TAF TAF LOWI
Valid from the 10 at 06:00 until the 11 at 06:00 UTC


100515Z 1006/1106 27010KT 9999 FEW020 BKN050 TX03/1010Z TN01/1106Z
TEMPO 1006/1018 27015G25KT 6000 SHRASN FEW015 BKN025
TEMPO 1018/1106 27015G25KT 2000 SHSN VV015
No reported NOTAMs for that airfield.



MET'MAP, your aeronautical weather chart ! - Copyright ORBIFLY December 2007 - Disclaimer

ORBIFLY MET'MAP TEAM :

Programming & Development : Alexandra Zaïnal
Concept & Development : Baudouin d'Aumeries
Co-Development & Prog : Marc-Olivier Méhu
Technical & hardware support : Manuel Goepfert

Contact : metmap@orbifly.com




SOURCES & CREDITS :

   NOAA